Home > Products > Valid Products > TAF

000
FTUS44 KBMX 270500
TAFTCL
TAF
KTCL 270527Z 2706/2806 32005KT P6SM SKC
     FM271500 32010G18KT P6SM SCT035
     FM272100 32008KT P6SM FEW040=



000
FTUS44 KBMX 270500
TAFBHM
TAF
KBHM 270527Z 2706/2806 31007KT P6SM SKC
     FM271500 32010G18KT P6SM BKN035
     FM272100 32009KT P6SM FEW040=



000
FTUS44 KBMX 270500
TAFTOI
TAF
KTOI 270527Z 2706/2806 25007KT P6SM SKC
     FM271500 31012G20KT P6SM FEW040
     FM272300 32008KT P6SM SKC=



000
FTUS44 KBMX 270500
TAFANB
TAF
KANB 270527Z 2706/2806 29008KT P6SM SKC
     FM271500 32010G18KT P6SM BKN035
     FM272100 32009KT P6SM FEW040=



000
FTUS44 KBMX 270500
TAFMGM
TAF
KMGM 270527Z 2706/2806 26007KT P6SM SKC
     FM271500 31012G20KT P6SM FEW040
     FM272300 32009KT P6SM SKC=



000
FTUS44 KBMX 270500
TAFEET
TAF
KEET 270527Z 2706/2806 31007KT P6SM SKC
     FM271500 32009G18KT P6SM BKN035
     FM272100 32008KT P6SM FEW040=



000
FTUS44 KBMX 270300 AAA
TAFEET
TAF AMD
KEET 270304Z 2703/2724 30010G18KT P6SM BKN070
     FM270600 29007KT P6SM SCT100
     FM271400 32010G18KT P6SM BKN035=



000
FTUS44 KBMX 270200 AAA
TAFANB
TAF AMD
KANB 270242Z 2703/2724 30007KT P6SM BKN080
     FM270500 26007KT P6SM SCT100
     FM271400 30010G18KT P6SM BKN035=



000
FTUS44 KBMX 270200 AAA
TAFTCL
TAF AMD
KTCL 270240Z 2703/2724 32010G18KT P6SM BKN090
     FM270400 26007KT P6SM SCT100
     FM271400 32010G18KT P6SM BKN035=



000
FTUS44 KBMX 270200 AAA
TAFBHM
TAF AMD
KBHM 270204Z 2702/2724 32010G18KT P6SM BKN080
     FM270400 26007KT P6SM SCT100
     FM271400 32010G18KT P6SM BKN035=



000
FTUS44 KBMX 262300
TAFTOI
TAF
KTOI 262326Z 2700/2724 19006KT P6SM SKC
     FM270600 27009KT P6SM SCT120
     FM271400 32012G20KT P6SM SCT040=



000
FTUS44 KBMX 262300
TAFBHM
TAF
KBHM 262326Z 2700/2724 20008KT P6SM BKN120
     FM270400 26009KT P6SM SCT100
     FM271400 32010G18KT P6SM BKN035=



000
FTUS44 KBMX 262300
TAFMGM
TAF
KMGM 262326Z 2700/2724 19006KT P6SM SKC
     FM270600 27009KT P6SM SCT120
     FM271400 32012G20KT P6SM SCT040=



000
FTUS44 KBMX 262300
TAFANB
TAF
KANB 262326Z 2700/2724 15006KT P6SM BKN120
     FM270400 23007KT P6SM SCT100
     FM270700 26008G18KT P6SM SCT100
     FM271400 30010G18KT P6SM BKN035=



000
FTUS44 KBMX 262300
TAFEET
TAF
KEET 262326Z 2700/2724 19007KT P6SM BKN120
     FM270400 26007KT P6SM SCT100
     FM271400 32010G18KT P6SM BKN035=



000
FTUS44 KBMX 262300
TAFTCL
TAF
KTCL 262326Z 2700/2724 19008KT P6SM BKN120
     FM270400 26009KT P6SM SCT100
     FM271400 32010G18KT P6SM BKN035=



000
FTUS44 KBMX 261700
TAFTOI
TAF
KTOI 261738Z 2618/2718 32007KT P6SM SKC
     FM262200 26007KT P6SM SCT250
     FM270000 20006KT P6SM SCT110
     FM270600 24009KT P6SM SCT050
     FM271400 32011G20KT P6SM SCT030=



000
FTUS44 KBMX 261700
TAFTCL
TAF
KTCL 261738Z 2618/2718 22008KT P6SM SKC
     FM262000 19007KT P6SM BKN150
     FM270300 28008KT P6SM BKN070
     FM271200 32010G20KT P6SM BKN025=



000
FTUS44 KBMX 261700
TAFEET
TAF
KEET 261738Z 2618/2718 24004KT P6SM SKC
     FM262030 19007KT P6SM BKN150
     FM270400 28008KT P6SM BKN070
     FM271400 32010G20KT P6SM BKN025=



000
FTUS44 KBMX 261700
TAFBHM
TAF
KBHM 261738Z 2618/2718 25004KT P6SM SKC
     FM262030 19007KT P6SM BKN150
     FM270400 28008KT P6SM BKN070
     FM271400 32010G20KT P6SM BKN025=



000
FTUS44 KBMX 261700
TAFANB
TAF
KANB 261738Z 2618/2718 27004KT P6SM SKC
     FM262130 21007KT P6SM BKN150
     FM270300 19006KT P6SM BKN070
     FM270700 25008KT P6SM BKN060
     FM271400 32010G20KT P6SM BKN025=



000
FTUS44 KBMX 261700
TAFMGM
TAF
KMGM 261738Z 2618/2718 30007KT P6SM SKC
     FM262100 26007KT P6SM SCT250
     FM270000 20006KT P6SM SCT110
     FM270600 27009KT P6SM SCT050
     FM271400 32011G20KT P6SM SCT030=



000
FTUS44 KBMX 261100
TAFANB
TAF
KANB 261128Z 2612/2712 25007KT P6SM SKC
     FM270300 26009KT P6SM SKC=



000
FTUS44 KBMX 261100
TAFTOI
TAF
KTOI 261128Z 2612/2712 30007KT P6SM SKC
     FM262100 22007KT P6SM SKC
     FM270500 27007KT P6SM SKC=



000
FTUS44 KBMX 261100
TAFTCL
TAF
KTCL 261128Z 2612/2712 29005KT P6SM SKC
     FM261800 20008KT P6SM SCT150
     FM270300 29008KT P6SM SKC=



000
FTUS44 KBMX 261100
TAFEET
TAF
KEET 261128Z 2612/2712 30005KT P6SM SKC
     FM261800 22007KT P6SM SCT150
     FM270300 28008KT P6SM SKC=



000
FTUS44 KBMX 261100
TAFBHM
TAF
KBHM 261128Z 2612/2712 30005KT P6SM SKC
     FM261800 22008KT P6SM SCT150
     FM270300 28009KT P6SM SKC=



000
FTUS44 KBMX 261100
TAFMGM
TAF
KMGM 261128Z 2612/2712 29007KT P6SM SKC
     FM262100 22007KT P6SM SKC
     FM270500 27008KT P6SM SKC=



000
FTUS44 KBMX 260500 CCA
TAFEET
TAF COR
KEET 260524Z 2606/2706 32008KT P6SM BKN050 OVC100
     FM261600 21007KT P6SM SCT150
     FM270300 27007KT P6SM SKC=



000
FTUS44 KBMX 260500
TAFTOI
TAF
KTOI 260520Z 2606/2706 30007KT P6SM VCSH BKN050 OVC100
     FM261300 30005KT P6SM SCT150
     FM261800 28010KT P6SM SKC
     FM262300 22008KT P6SM SCT150=



000
FTUS44 KBMX 260500
TAFMGM
TAF
KMGM 260520Z 2606/2706 32007KT P6SM BKN050 OVC100
     FM261200 30005KT P6SM SCT150
     FM261700 28010KT P6SM SKC
     FM262200 22008KT P6SM SCT150=



000
FTUS44 KBMX 260500
TAFANB
TAF
KANB 260520Z 2606/2706 32005KT P6SM VCSH BKN050 OVC100
     FM261600 21007KT P6SM SCT150
     FM270300 27007KT P6SM SKC=



000
FTUS44 KBMX 260500
TAFBHM
TAF
KBHM 260520Z 2606/2706 32003KT P6SM BKN050 OVC100
     FM261600 22008KT P6SM SCT150
     FM270300 28009KT P6SM SKC=



000
FTUS44 KBMX 260500
TAFTCL
TAF
KTCL 260520Z 2606/2706 VRB03KT P6SM SKC
     FM261800 22008KT P6SM SCT150
     FM270300 28008KT P6SM SKC=



000
FTUS44 KBMX 260500
TAFEET
TAF
KEET 260520Z 2606/2706 32003KT P6SM BKN050 OVC100
     FM261600 21007KT P6SM SCT150
     FM270300 27007KT P6SM SKC=



000
FTUS44 KBMX 260300 AAA
TAFMGM
TAF AMD
KMGM 260303Z 2603/2624 32006KT P6SM VCSH SCT035 OVC050
     FM260600 32005KT P6SM VCSH SCT020 OVC040
      TEMPO 2606/2610 SCT008 BKN012
     FM261000 30006KT P6SM SCT015 SCT250
     FM261600 28010KT P6SM SKC=



000
FTUS44 KBMX 260000 AAA
TAFTOI
TAF AMD
KTOI 260025Z 2600/2624 25007KT P6SM VCSH SCT020 OVC050
     FM260130 27006KT 6SM -RA SCT015 OVC050
      TEMPO 2606/2610 4SM BR SCT005 BKN012
     FM261000 30006KT P6SM SCT015 SCT250
     FM261800 28010KT P6SM SKC=



000
FTUS44 KBMX 252300
TAFTCL
TAF
KTCL 252320Z 2600/2624 32003KT P6SM OVC100
     FM260600 VRB03KT P6SM BKN250
     FM261800 22008KT P6SM SKC=



000
FTUS44 KBMX 252300
TAFMGM
TAF
KMGM 252320Z 2600/2624 32006KT P6SM VCSH SCT035 OVC050
     FM260400 32005KT 4SM -RA SCT020 OVC040
      TEMPO 2606/2610 SCT008 BKN012
     FM261000 30006KT P6SM SCT015 SCT250
     FM261600 28010KT P6SM SKC=



000
FTUS44 KBMX 252300
TAFANB
TAF
KANB 252320Z 2600/2624 33006KT P6SM SCT035 OVC050
     FM260600 32005KT P6SM VCSH SCT020 OVC040
      TEMPO 2606/2610 SCT008 BKN012
     FM261000 30006KT P6SM SCT015 SCT250
     FM261800 26008KT P6SM SKC=



000
FTUS44 KBMX 252300
TAFBHM
TAF
KBHM 252320Z 2600/2624 32003KT P6SM OVC100
     FM260700 30003KT P6SM SCT025 BKN250
     FM261800 24009KT P6SM SCT250=



000
FTUS44 KBMX 252300
TAFTOI
TAF
KTOI 252320Z 2600/2624 33007KT P6SM VCSH SCT020 OVC050
     FM260300 33006KT 4SM -RA SCT015 OVC050
      TEMPO 2606/2610 SCT005 BKN012
     FM261000 30006KT P6SM SCT015 SCT250
     FM261800 28010KT P6SM SKC=



000
FTUS44 KBMX 252300
TAFEET
TAF
KEET 252320Z 2600/2624 32003KT P6SM OVC100
     FM260700 30003KT P6SM SCT025 BKN250
     FM261800 24007KT P6SM SKC=



000
FTUS44 KBMX 251700
TAFEET
TAF
KEET 251735Z 2518/2618 01008KT P6SM SCT150 BKN250
     FM260000 32003KT P6SM OVC100
     FM260700 30003KT P6SM SCT025 BKN250=



000
FTUS44 KBMX 251700
TAFMGM
TAF
KMGM 251735Z 2518/2618 34008KT P6SM BKN100
     FM260000 32006KT P6SM VCSH SCT035 OVC050
     FM260400 32005KT 4SM -RA SCT020 OVC040
      TEMPO 2606/2610 SCT008 BKN012
     FM261000 30006KT P6SM SCT015 SCT250=



000
FTUS44 KBMX 251700
TAFTCL
TAF
KTCL 251735Z 2518/2618 03008KT P6SM SCT150
     FM260000 32003KT P6SM OVC100
     FM260600 VRB03KT P6SM BKN250=



000
FTUS44 KBMX 251700
TAFBHM
TAF
KBHM 251735Z 2518/2618 01008KT P6SM SCT150 BKN250
     FM260000 32003KT P6SM OVC100
     FM260700 30003KT P6SM SCT025 BKN250=



000
FTUS44 KBMX 251700
TAFTOI
TAF
KTOI 251735Z 2518/2618 04007KT P6SM BKN050 OVC100
     FM252300 33007KT P6SM VCSH SCT020 OVC050
     FM260300 33006KT 4SM -RA SCT015 OVC050
      TEMPO 2606/2610 SCT005 BKN012
     FM261000 30006KT P6SM SCT015 SCT250=



000
FTUS44 KBMX 251700
TAFANB
TAF
KANB 251735Z 2518/2618 01007KT P6SM SCT150 BKN250
     FM260300 33006KT P6SM SCT035 OVC050
     FM260600 32005KT P6SM VCSH SCT020 OVC040
      TEMPO 2606/2610 SCT008 BKN012
     FM261000 30006KT P6SM SCT015 SCT250=



000
FTUS44 KBMX 251100
TAFTOI
TAF
KTOI 251137Z 2512/2612 35005KT P6SM OVC150
     FM251500 36008KT P6SM OVC100
     FM252300 33007KT P6SM VCSH BKN035 OVC050
     FM260300 33006KT 4SM RA SCT015 OVC035=



000
FTUS44 KBMX 251100
TAFTCL
TAF
KTCL 251137Z 2512/2612 34004KT P6SM SCT150
     FM251700 33008KT P6SM SCT150
     FM260000 32003KT P6SM OVC100=



000
FTUS44 KBMX 251100
TAFMGM
TAF
KMGM 251137Z 2512/2612 35005KT P6SM OVC150
     FM251500 33008KT P6SM OVC100
     FM260000 32006KT P6SM VCSH SCT035 OVC050
     FM260500 31005KT 4SM RA SCT020 OVC035=



000
FTUS44 KBMX 251100
TAFEET
TAF
KEET 251137Z 2512/2612 33003KT P6SM BKN150
     FM251700 33008KT P6SM BKN150
     FM260000 33004KT P6SM SCT050 OVC100=



000
FTUS44 KBMX 251100
TAFBHM
TAF
KBHM 251137Z 2512/2612 35004KT P6SM BKN150
     FM251800 33008KT P6SM BKN150
     FM260000 33005KT P6SM SCT050 OVC100=



000
FTUS44 KBMX 251100
TAFANB
TAF
KANB 251137Z 2512/2612 36004KT P6SM BKN150
     FM251700 33007KT P6SM BKN150
     FM260000 32004KT P6SM BKN040 OVC100=



000
FTUS44 KBMX 250500
TAFANB
TAF
KANB 250520Z 2506/2606 31004KT P6SM SCT150
     FM251700 35008KT P6SM SCT150
     FM260000 32003KT P6SM OVC100=



000
FTUS44 KBMX 250500
TAFTOI
TAF
KTOI 250520Z 2506/2606 31007KT P6SM SCT150
     FM251500 36010KT P6SM BKN150
     FM252300 32006KT P6SM VCSH BKN050 OVC100
     FM260300 34005KT 4SM RA BKN035 OVC050=



000
FTUS44 KBMX 250500
TAFTCL
TAF
KTCL 250520Z 2506/2606 30004KT P6SM SCT150
     FM251700 34008KT P6SM SCT150
     FM260000 32003KT P6SM OVC100=



000
FTUS44 KBMX 250500
TAFBHM
TAF
KBHM 250520Z 2506/2606 30007KT P6SM SCT150
     FM250900 33004KT P6SM SCT150
     FM251800 34010KT P6SM SCT150
     FM260000 33005KT P6SM OVC100=



000
FTUS44 KBMX 250500
TAFEET
TAF
KEET 250520Z 2506/2606 30003KT P6SM SCT150
     FM251700 34008KT P6SM SCT150
     FM260000 32003KT P6SM OVC100=



000
FTUS44 KBMX 250500
TAFMGM
TAF
KMGM 250520Z 2506/2606 30009KT P6SM SCT150
     FM251500 36010KT P6SM BKN150
     FM260000 32006KT P6SM VCSH BKN050 OVC100=



000
FTUS44 KBMX 242300
TAFTOI
TAF
KTOI 242320Z 2500/2524 31007KT P6SM SCT150
     FM251500 36010KT P6SM BKN150=



000
FTUS44 KBMX 242300
TAFMGM
TAF
KMGM 242320Z 2500/2524 30009KT P6SM SCT150
     FM251500 36010KT P6SM BKN150=



000
FTUS44 KBMX 242300
TAFBHM
TAF
KBHM 242320Z 2500/2524 30005KT P6SM SCT150
     FM251700 34010KT P6SM SCT250=



000
FTUS44 KBMX 242300
TAFTCL
TAF
KTCL 242320Z 2500/2524 30004KT P6SM SCT150
     FM251700 34008KT P6SM SCT250=



000
FTUS44 KBMX 242300
TAFANB
TAF
KANB 242320Z 2500/2524 27007KT P6SM SCT035
     FM250200 31004KT P6SM SCT150
     FM251700 35008KT P6SM SCT250=



000
FTUS44 KBMX 242300
TAFEET
TAF
KEET 242320Z 2500/2524 30003KT P6SM SCT150
     FM251700 34008KT P6SM SCT250=



000
FTUS44 KBMX 241900 AAA
TAFTCL
TAF AMD
KTCL 241939Z 2420/2518 30008G18KT P6SM SCT030
     FM242300 31007KT P6SM SCT150=



000
FTUS44 KBMX 241700
TAFTOI
TAF
KTOI 241727Z 2418/2518 24009KT P6SM SCT025 SCT100
     FM242100 30008KT P6SM SCT030
     FM250000 31007KT P6SM SCT150=



000
FTUS44 KBMX 241700
TAFMGM
TAF
KMGM 241727Z 2418/2518 27010KT P6SM SCT025
     FM242300 31008KT P6SM SCT150=



000
FTUS44 KBMX 241700
TAFBHM
TAF
KBHM 241727Z 2418/2518 27012G22KT P6SM SCT030
     FM250000 30005KT P6SM SCT150=



000
FTUS44 KBMX 241700
TAFTCL
TAF
KTCL 241727Z 2418/2518 28012G22KT P6SM SCT030
      TEMPO 2418/2421 BKN030
     FM242300 31007KT P6SM SCT150=



000
FTUS44 KBMX 241700
TAFEET
TAF
KEET 241727Z 2418/2518 29010G20KT P6SM SCT020
     FM250000 30005KT P6SM SCT150=



000
FTUS44 KBMX 241700
TAFANB
TAF
KANB 241727Z 2418/2518 26010G20KT P6SM SCT035
     FM250100 30005KT P6SM SCT150=



000
FTUS44 KBMX 241500 AAA
TAFTOI
TAF AMD
KTOI 241529Z 2415/2512 22008KT P6SM BKN015
      TEMPO 2415/2418 SCT015
     FM241800 27009KT P6SM BKN025
      TEMPO 2419/2423 SCT025
     FM242300 31007KT P6SM SCT150=



000
FTUS44 KBMX 241500 AAA
TAFMGM
TAF AMD
KMGM 241528Z 2415/2512 25008KT P6SM BKN015
      TEMPO 2416/2417 SCT015
     FM241700 27009KT P6SM BKN025
      TEMPO 2418/2422 SCT025
     FM242200 31007KT P6SM SCT150=



000
FTUS44 KBMX 241500 AAA
TAFTCL
TAF AMD
KTCL 241526Z 2415/2512 27010G20KT P6SM BKN040
      TEMPO 2416/2419 BKN025
     FM242300 30007KT P6SM SCT150=



000
FTUS44 KBMX 241500 AAA
TAFANB
TAF AMD
KANB 241524Z 2415/2512 23012G23KT P6SM SCT025
      TEMPO 2416/2418 BKN025
     FM241800 26010G20KT P6SM BKN025
     FM242300 28005KT P6SM SCT150=



000
FTUS44 KBMX 241500 AAB
TAFEET
TAF AMD
KEET 241521Z 2415/2512 23008G18KT P6SM BKN015 BKN030
      TEMPO 2416/2418 SCT030
     FM241800 27010G20KT P6SM BKN025
     FM242300 30005KT P6SM SCT150=



000
FTUS44 KBMX 241500 AAB
TAFBHM
TAF AMD
KBHM 241517Z 2415/2512 25011G23KT P6SM BKN030
      TEMPO 2415/2417 SCT025 SCT035
     FM241700 27010G20KT P6SM BKN025
     FM242200 30006KT P6SM SCT150=



000
FTUS44 KBMX 241300 AAA
TAFEET
TAF AMD
KEET 241325Z 2413/2512 21010KT P6SM SCT015 BKN025
      TEMPO 2413/2414 BKN015
     FM241500 27010KT P6SM BKN040
     FM242300 29005KT P6SM SCT150=



000
FTUS44 KBMX 241300 AAA
TAFBHM
TAF AMD
KBHM 241303Z 2413/2512 22013KT P6SM BKN025
      TEMPO 2413/2414 BKN015
     FM241500 26011KT P6SM BKN040
     FM242300 29006KT P6SM SCT150=



000
FTUS44 KBMX 241100
TAFTCL
TAF
KTCL 241133Z 2412/2512 20010KT P6SM SCT025
      TEMPO 2412/2414 BKN025
     FM241500 26010KT P6SM BKN040
     FM242300 29005KT P6SM SCT150=



000
FTUS44 KBMX 241100
TAFMGM
TAF
KMGM 241133Z 2412/2512 20008KT P6SM SCT020
      TEMPO 2412/2414 BKN020
     FM241600 27009KT P6SM SCT040
     FM242300 31007KT P6SM SCT250=



000
FTUS44 KBMX 241100
TAFBHM
TAF
KBHM 241133Z 2412/2512 22013KT P6SM BKN025
     FM241500 26011KT P6SM BKN040
     FM242300 29006KT P6SM SCT150=



000
FTUS44 KBMX 241100
TAFEET
TAF
KEET 241133Z 2412/2512 21010KT P6SM SCT015 BKN025
      TEMPO 2412/2413 BKN015
     FM241500 27010KT P6SM BKN040
     FM242300 29005KT P6SM SCT150=



000
FTUS44 KBMX 241100
TAFTOI
TAF
KTOI 241133Z 2412/2512 22007KT P6SM BKN015
     FM241400 23009KT P6SM BKN025
     FM241700 26009KT P6SM BKN040
     FM242300 31007KT P6SM SCT250=



000
FTUS44 KBMX 241100
TAFANB
TAF
KANB 241133Z 2412/2512 23010KT 6SM BR BKN025
     FM241500 25010KT P6SM BKN040
     FM242300 28005KT P6SM SCT150=



000
FTUS44 KBMX 240900 AAA
TAFTCL
TAF AMD
KTCL 240950Z 2410/2506 20010KT 6SM BR SCT015
      TEMPO 2410/2414 BKN015
     FM241500 24011KT P6SM BKN035
     FM241800 27012KT P6SM SCT100
     FM250000 31004KT P6SM SCT250=



000
FTUS44 KBMX 240900 AAA
TAFTCL
TAF AMD
KTCL 240950Z 2410/2506 20010KT 6SM BR SCT015
      TEMPO 2410/2414 BKN015
     FM241500 24011KT P6SM BKN035
     FM241800 27012KT P6SM SCT100
     FM250000 31004KT P6SM SCT250=



000
FTUS44 KBMX 240800 AAA
TAFTOI
TAF AMD
KTOI 240832Z 2409/2506 20006KT 6SM BR BKN006
     FM241600 25012KT P6SM BKN025
     FM242000 27009KT P6SM SCT100
     FM250100 31004KT P6SM SCT250=



    US Dept of Commerce
    National Oceanic and Atmospheric Administration
    National Weather Service
    1325 East West Highway
    Silver Spring, MD 20910
    Page Author: NWS Internet Services Team
Disclaimer
Information Quality
Credits
Glossary
Privacy Policy
Freedom of Information Act (FOIA)
About Us
Career Opportunities